createdAt,value
2022-09-17T00:01:39.538Z,91.22
2022-09-17T00:04:07.661Z,91.23
2022-09-17T00:06:37.450Z,90.67
2022-09-17T00:09:06.591Z,90.89
2022-09-17T00:11:37.826Z,90.84
2022-09-17T00:14:10.198Z,90.94
2022-09-17T00:16:40.514Z,90.61
2022-09-17T00:19:14.438Z,90.53
2022-09-17T00:21:43.197Z,90.37
2022-09-17T00:24:14.202Z,90.26
2022-09-17T00:26:42.869Z,89.93
2022-09-17T00:29:13.310Z,89.81
2022-09-17T00:31:41.791Z,89.68
2022-09-17T00:34:10.269Z,89.76
2022-09-17T00:36:40.488Z,89.21
2022-09-17T00:39:12.440Z,88.76
2022-09-17T00:41:40.793Z,88.59
2022-09-17T00:44:53.240Z,88.17
2022-09-17T00:47:31.094Z,87.35
2022-09-17T00:50:04.368Z,86.67
2022-09-17T00:52:37.318Z,86.61
2022-09-17T00:55:14.041Z,86.03
2022-09-17T00:57:43.328Z,85.94
2022-09-17T01:00:15.006Z,85.63
2022-09-17T01:02:45.018Z,85.43
2022-09-17T01:05:14.543Z,85.12
2022-09-17T01:08:03.432Z,85.15
2022-09-17T01:10:49.103Z,84.95
2022-09-17T01:13:28.374Z,84.97
2022-09-17T01:16:08.828Z,84.51
2022-09-17T01:18:54.183Z,84.10
2022-09-17T01:21:50.048Z,84.15
2022-09-17T01:24:48.357Z,84.20
2022-09-17T01:28:18.270Z,84.11
2022-09-17T01:31:19.696Z,84.06
2022-09-17T01:34:03.452Z,83.95
2022-09-17T01:36:54.639Z,83.76
2022-09-17T01:39:34.527Z,83.16
2022-09-17T01:42:15.324Z,83.51
2022-09-17T01:44:53.260Z,83.68
2022-09-17T01:47:27.397Z,83.71
2022-09-17T01:50:01.630Z,83.68
2022-09-17T01:52:33.038Z,83.88
2022-09-17T01:55:07.315Z,83.94
2022-09-17T01:57:41.903Z,83.54
2022-09-17T02:00:13.749Z,83.78
2022-09-17T02:02:47.698Z,84.01
2022-09-17T02:05:20.524Z,83.78
2022-09-17T02:07:55.041Z,83.70
2022-09-17T02:10:27.473Z,83.41
2022-09-17T02:13:02.041Z,83.53
2022-09-17T02:15:37.713Z,83.86
2022-09-17T02:18:15.041Z,83.97
2022-09-17T02:20:48.644Z,83.84
2022-09-17T02:23:22.603Z,83.64
2022-09-17T02:26:00.746Z,83.95
2022-09-17T02:28:42.471Z,84.25
2022-09-17T02:31:11.857Z,84.70
2022-09-17T02:33:43.667Z,85.04
2022-09-17T02:36:11.763Z,84.73
2022-09-17T02:38:43.132Z,84.76
2022-09-17T02:41:17.877Z,84.97
2022-09-17T02:44:01.127Z,85.38
2022-09-17T02:46:46.738Z,85.32
2022-09-17T02:49:36.921Z,85.25
2022-09-17T02:52:15.792Z,85.34
2022-09-17T02:54:54.319Z,85.13
2022-09-17T02:57:31.132Z,84.88
2022-09-17T03:00:07.479Z,85.11
2022-09-17T03:02:41.380Z,85.55
2022-09-17T03:05:12.258Z,85.63
2022-09-17T03:07:40.440Z,85.39
2022-09-17T03:10:10.145Z,85.43
2022-09-17T03:12:38.550Z,85.47
2022-09-17T03:15:08.062Z,85.83
2022-09-17T03:17:36.562Z,85.62
2022-09-17T03:20:06.211Z,85.29
2022-09-17T03:22:35.725Z,84.99
2022-09-17T03:25:03.911Z,85.74
2022-09-17T03:27:32.005Z,85.44
2022-09-17T03:30:00.244Z,85.93
2022-09-17T03:32:28.297Z,85.60
2022-09-17T03:34:56.564Z,86.06
2022-09-17T03:37:24.652Z,85.67
2022-09-17T03:39:54.127Z,85.31
2022-09-17T03:42:22.185Z,85.56
2022-09-17T03:44:50.686Z,85.70
2022-09-17T03:47:18.821Z,85.50
2022-09-17T03:49:46.902Z,85.99
2022-09-17T03:52:15.181Z,85.97
2022-09-17T03:54:43.362Z,85.39
2022-09-17T03:57:12.869Z,85.61
2022-09-17T03:59:40.914Z,85.63
2022-09-17T04:02:09.059Z,85.61
2022-09-17T04:04:37.782Z,86.07
2022-09-17T04:07:06.182Z,85.45
2022-09-17T04:09:35.363Z,85.73
2022-09-17T04:12:04.233Z,85.37
2022-09-17T04:14:33.650Z,86.40
2022-09-17T04:17:01.724Z,86.35
2022-09-17T04:19:29.832Z,86.60
2022-09-17T04:21:57.962Z,86.79
2022-09-17T04:24:26.062Z,86.49
2022-09-17T04:26:54.115Z,86.56
2022-09-17T04:29:22.230Z,87.43
2022-09-17T04:31:51.652Z,87.29
2022-09-17T04:34:19.827Z,86.65
2022-09-17T04:36:47.827Z,87.45
2022-09-17T04:39:17.285Z,87.57
2022-09-17T04:41:45.790Z,87.16
2022-09-17T04:44:13.928Z,87.04
2022-09-17T04:46:42.018Z,87.29
2022-09-17T04:49:12.471Z,87.24
2022-09-17T04:51:40.515Z,86.46
2022-09-17T04:54:08.962Z,87.42
2022-09-17T04:56:36.981Z,86.46
2022-09-17T04:59:05.193Z,87.06
2022-09-17T05:01:33.262Z,87.22
2022-09-17T05:04:07.838Z,87.38
2022-09-17T05:06:37.978Z,86.49
2022-09-17T05:09:06.037Z,87.17
2022-09-17T05:11:34.068Z,87.23
2022-09-17T05:14:02.288Z,86.97
2022-09-17T05:16:30.659Z,86.98
2022-09-17T05:18:58.899Z,87.85
2022-09-17T05:21:27.151Z,87.50
2022-09-17T05:23:56.879Z,87.43
2022-09-17T05:26:25.409Z,87.85
2022-09-17T05:28:53.693Z,87.51
2022-09-17T05:31:21.792Z,87.37
2022-09-17T05:33:49.973Z,87.94
2022-09-17T05:36:18.153Z,88.44
2022-09-17T05:38:46.284Z,87.89
2022-09-17T05:41:15.863Z,88.55
2022-09-17T05:43:44.786Z,88.32
2022-09-17T05:46:12.918Z,87.95
2022-09-17T05:48:40.999Z,87.76
2022-09-17T05:51:09.100Z,87.77
2022-09-17T05:53:37.854Z,88.72
2022-09-17T05:56:06.546Z,88.17
2022-09-17T05:58:35.958Z,87.73
2022-09-17T06:01:04.349Z,87.92
2022-09-17T06:03:32.447Z,87.66
2022-09-17T06:06:01.686Z,87.85
2022-09-17T06:08:30.639Z,87.85
2022-09-17T06:11:02.261Z,87.89
2022-09-17T06:13:30.899Z,87.19
2022-09-17T06:16:00.751Z,87.16
2022-09-17T06:18:29.533Z,87.75
2022-09-17T06:20:59.530Z,87.21
2022-09-17T06:23:29.156Z,86.92
2022-09-17T06:25:59.825Z,86.52
2022-09-17T06:28:29.021Z,86.02
2022-09-17T06:31:03.454Z,85.73
2022-09-17T06:33:32.910Z,85.58
2022-09-17T06:36:03.390Z,86.07
2022-09-17T06:38:34.465Z,86.78
2022-09-17T06:41:03.007Z,87.09
2022-09-17T06:43:31.642Z,87.29
2022-09-17T06:46:03.573Z,87.55
2022-09-17T06:48:35.296Z,87.69
2022-09-17T06:51:05.987Z,87.44
2022-09-17T06:53:34.513Z,87.64
2022-09-17T06:56:06.484Z,87.01
2022-09-17T06:58:37.044Z,86.79
2022-09-17T07:01:07.034Z,87.36
2022-09-17T07:03:37.347Z,87.25
2022-09-17T07:06:06.313Z,86.94
2022-09-17T07:08:35.424Z,87.08
2022-09-17T07:11:03.635Z,87.28
2022-09-17T07:13:31.733Z,87.31
2022-09-17T07:16:01.474Z,87.41
2022-09-17T07:18:31.189Z,87.41
2022-09-17T07:21:01.247Z,87.09
2022-09-17T07:23:31.225Z,87.31
2022-09-17T07:26:03.169Z,87.29
2022-09-17T07:28:31.384Z,86.96
2022-09-17T07:30:59.567Z,86.46
2022-09-17T07:33:30.015Z,86.35
2022-09-17T07:36:00.056Z,86.08
2022-09-17T07:38:29.643Z,85.93
2022-09-17T07:41:00.074Z,85.63
2022-09-17T07:43:29.707Z,86.35
2022-09-17T07:46:00.822Z,86.53
2022-09-17T07:48:31.287Z,86.64
2022-09-17T07:50:59.891Z,86.64
2022-09-17T07:53:28.539Z,86.45
2022-09-17T07:55:58.639Z,86.24
2022-09-17T07:58:31.755Z,86.00
2022-09-17T08:01:03.343Z,86.15
2022-09-17T08:03:33.396Z,85.84
2022-09-17T08:06:06.007Z,85.72
2022-09-17T08:08:35.864Z,85.22
2022-09-17T08:11:04.437Z,85.35
2022-09-17T08:13:32.775Z,85.13
2022-09-17T08:16:02.939Z,85.63
2022-09-17T08:18:32.994Z,85.85
2022-09-17T08:21:03.186Z,85.85
2022-09-17T08:23:33.219Z,86.07
2022-09-17T08:26:02.590Z,85.95
2022-09-17T08:28:32.641Z,86.03
2022-09-17T08:31:03.389Z,85.74
2022-09-17T08:33:34.694Z,85.25
2022-09-17T08:36:03.637Z,85.02
2022-09-17T08:38:37.927Z,84.51
2022-09-17T08:41:25.607Z,84.13
2022-09-17T08:44:07.408Z,82.61
2022-09-17T08:46:48.188Z,82.19
2022-09-17T08:49:31.445Z,82.00
2022-09-17T08:53:02.695Z,81.40
2022-09-17T08:55:41.379Z,81.60
2022-09-17T08:58:39.526Z,81.17
2022-09-17T09:01:25.579Z,80.43
2022-09-17T09:04:18.461Z,80.38
2022-09-17T09:06:52.858Z,79.55
2022-09-17T09:09:26.638Z,78.41
2022-09-17T09:12:10.512Z,78.39
2022-09-17T09:14:50.015Z,79.86
2022-09-17T09:17:22.668Z,81.02
2022-09-17T09:19:52.985Z,81.54
2022-09-17T09:22:41.759Z,82.37
2022-09-17T09:25:23.266Z,82.79
2022-09-17T09:28:19.292Z,83.07
2022-09-17T09:31:10.514Z,83.18
2022-09-17T09:33:47.583Z,83.49
2022-09-17T09:36:21.689Z,82.94
2022-09-17T09:38:57.644Z,82.83
2022-09-17T09:41:33.304Z,82.62
2022-09-17T09:44:05.718Z,82.78
2022-09-17T09:47:05.121Z,82.39
2022-09-17T09:49:58.507Z,82.19
2022-09-17T09:52:45.124Z,81.58
2022-09-17T09:55:41.081Z,82.17
2022-09-17T09:58:21.129Z,81.71
2022-09-17T10:00:49.550Z,81.90
2022-09-17T10:03:22.583Z,81.41
2022-09-17T10:05:59.453Z,80.86
2022-09-17T10:08:29.444Z,80.53
2022-09-17T10:11:02.598Z,80.73
2022-09-17T10:13:35.562Z,81.28
2022-09-17T10:16:20.315Z,80.99
2022-09-17T10:18:49.945Z,80.56
2022-09-17T10:21:23.554Z,80.62
2022-09-17T10:23:52.299Z,80.31
2022-09-17T10:26:28.697Z,80.41
2022-09-17T10:28:58.526Z,80.71
2022-09-17T10:31:26.805Z,81.08
2022-09-17T10:34:00.423Z,80.57
2022-09-17T10:36:43.469Z,80.01
2022-09-17T10:39:38.635Z,79.38
2022-09-17T10:42:16.271Z,78.04
2022-09-17T10:44:54.640Z,76.89
2022-09-17T10:47:28.970Z,75.84
2022-09-17T10:50:01.442Z,75.10
2022-09-17T10:52:34.293Z,74.96
2022-09-17T10:55:24.326Z,74.31
2022-09-17T10:58:25.599Z,74.73
2022-09-17T11:01:09.762Z,74.63
2022-09-17T11:04:23.474Z,73.85
2022-09-17T11:07:23.470Z,73.16
2022-09-17T11:10:00.686Z,71.66
2022-09-17T11:13:03.942Z,71.09
2022-09-17T11:15:52.840Z,69.23
2022-09-17T11:18:37.501Z,67.59
2022-09-17T11:21:37.732Z,67.11
2022-09-17T11:25:10.028Z,65.97
2022-09-17T11:28:07.658Z,64.24
2022-09-17T11:30:50.737Z,62.75
2022-09-17T11:33:47.454Z,61.33
2022-09-17T11:36:22.242Z,59.82
2022-09-17T11:38:52.493Z,59.39
2022-09-17T11:41:24.653Z,59.71
2022-09-17T11:44:05.434Z,59.00
2022-09-17T11:46:41.585Z,56.96
2022-09-17T11:49:19.547Z,57.42
2022-09-17T11:51:52.567Z,55.99
2022-09-17T11:54:27.286Z,55.64
2022-09-17T11:57:04.415Z,55.67
2022-09-17T11:59:39.800Z,57.39
2022-09-17T12:02:22.708Z,59.07
2022-09-17T12:05:01.661Z,59.51
2022-09-17T12:07:42.409Z,59.17
2022-09-17T12:10:31.097Z,57.85
2022-09-17T12:13:08.638Z,56.86
2022-09-17T12:15:42.084Z,55.81
2022-09-17T12:18:32.237Z,55.78
2022-09-17T12:21:05.688Z,54.94
2022-09-17T12:23:43.738Z,56.25
2022-09-17T12:26:29.281Z,54.87
2022-09-17T12:29:07.001Z,53.34
2022-09-17T12:31:46.462Z,51.86
2022-09-17T12:34:37.483Z,54.80
2022-09-17T12:37:12.598Z,57.79
2022-09-17T12:40:20.449Z,58.06
2022-09-17T12:43:18.623Z,57.56
2022-09-17T12:46:29.974Z,60.37
2022-09-17T12:49:31.251Z,62.07
2022-09-17T12:52:02.570Z,59.53
2022-09-17T12:54:58.434Z,57.05
2022-09-17T12:57:39.677Z,55.84
2022-09-17T13:00:13.237Z,53.65
2022-09-17T13:02:47.464Z,53.45
2022-09-17T13:05:46.400Z,52.07
2022-09-17T13:08:53.487Z,51.13
2022-09-17T13:12:18.095Z,55.04
2022-09-17T13:15:25.117Z,60.10
2022-09-17T13:18:13.335Z,63.90
2022-09-17T13:21:02.961Z,64.59
2022-09-17T13:23:36.526Z,66.00
2022-09-17T13:26:06.766Z,65.89
2022-09-17T13:28:47.214Z,64.70
2022-09-17T13:31:23.127Z,67.92
2022-09-17T13:34:29.719Z,68.78
2022-09-17T13:37:00.600Z,67.21
2022-09-17T13:39:43.320Z,67.89
2022-09-17T13:42:18.421Z,66.86
2022-09-17T13:44:52.621Z,66.00
2022-09-17T13:47:28.353Z,64.25
2022-09-17T13:50:02.285Z,61.35
2022-09-17T13:52:39.540Z,60.22
2022-09-17T13:55:09.709Z,58.67
2022-09-17T13:57:51.262Z,54.30
2022-09-17T14:00:56.397Z,52.90
2022-09-17T14:03:57.062Z,54.22
2022-09-17T14:06:53.810Z,56.85
2022-09-17T14:09:51.464Z,56.78
2022-09-17T14:12:59.998Z,55.63
2022-09-17T14:16:03.246Z,54.35
2022-09-17T14:18:58.767Z,49.50
2022-09-17T14:21:32.944Z,48.00
2022-09-17T14:24:04.820Z,46.42
2022-09-17T14:27:16.081Z,44.94
2022-09-17T14:30:12.233Z,43.76
2022-09-17T14:32:46.700Z,43.74
2022-09-17T14:35:23.560Z,43.58
2022-09-17T14:37:59.458Z,44.15
2022-09-17T14:40:28.965Z,45.66
2022-09-17T14:43:00.044Z,46.11
2022-09-17T14:45:32.870Z,47.34
2022-09-17T14:48:31.494Z,48.54
2022-09-17T14:51:30.060Z,49.09
2022-09-17T14:54:26.567Z,48.90
2022-09-17T14:57:01.615Z,48.11
2022-09-17T14:59:45.018Z,46.88
2022-09-17T15:02:31.122Z,46.75
2022-09-17T15:05:00.148Z,47.51
2022-09-17T15:07:30.293Z,48.30
2022-09-17T15:10:10.186Z,47.73
2022-09-17T15:12:41.027Z,46.41
2022-09-17T15:15:20.313Z,45.86
2022-09-17T15:17:49.587Z,46.97
2022-09-17T15:20:22.317Z,52.42
2022-09-17T15:22:57.658Z,59.26
2022-09-17T15:25:30.948Z,63.32
2022-09-17T15:28:05.090Z,66.15
2022-09-17T15:30:34.596Z,67.20
2022-09-17T15:33:02.905Z,66.72
2022-09-17T15:35:33.322Z,68.36
2022-09-17T15:38:22.345Z,70.04
2022-09-17T15:40:51.821Z,71.29
2022-09-17T15:43:27.222Z,72.68
2022-09-17T15:46:00.659Z,73.04
2022-09-17T15:48:39.444Z,73.76
2022-09-17T15:51:24.263Z,74.47
2022-09-17T15:53:54.174Z,73.39
2022-09-17T15:56:25.359Z,69.95
2022-09-17T15:59:01.122Z,67.04
2022-09-17T16:01:57.031Z,64.18
2022-09-17T16:04:31.600Z,64.67
2022-09-17T16:07:28.570Z,65.60
2022-09-17T16:09:59.236Z,66.49
2022-09-17T16:12:29.809Z,66.82
2022-09-17T16:15:00.770Z,66.83
2022-09-17T16:17:43.325Z,66.41
2022-09-17T16:20:17.748Z,67.71
2022-09-17T16:22:47.869Z,65.07
2022-09-17T16:25:17.283Z,62.36
2022-09-17T16:27:51.378Z,59.71
2022-09-17T16:30:21.818Z,59.39
2022-09-17T16:32:52.063Z,59.48
2022-09-17T16:35:22.680Z,59.32
2022-09-17T16:37:51.721Z,58.35
2022-09-17T16:40:21.614Z,58.75
2022-09-17T16:42:49.887Z,57.62
2022-09-17T16:45:18.491Z,58.30
2022-09-17T16:47:46.599Z,60.22
2022-09-17T16:50:18.650Z,61.58
2022-09-17T16:52:47.609Z,62.29
2022-09-17T16:55:18.694Z,62.79
2022-09-17T16:57:47.680Z,63.53
2022-09-17T17:00:22.913Z,63.98
2022-09-17T17:02:56.993Z,64.11
2022-09-17T17:05:28.235Z,64.38
2022-09-17T17:07:56.562Z,64.70
2022-09-17T17:10:26.466Z,65.01
2022-09-17T17:12:55.590Z,65.82
2022-09-17T17:15:23.939Z,65.86
2022-09-17T17:17:52.445Z,65.35
2022-09-17T17:20:21.091Z,66.13
2022-09-17T17:22:51.719Z,66.00
2022-09-17T17:25:20.421Z,66.66
2022-09-17T17:27:48.572Z,67.09
2022-09-17T17:30:17.643Z,67.32
2022-09-17T17:32:50.511Z,67.24
2022-09-17T17:35:18.993Z,67.97
2022-09-17T17:37:48.593Z,68.41
2022-09-17T17:40:18.330Z,68.36
2022-09-17T17:42:47.517Z,68.43
2022-09-17T17:45:15.918Z,68.92
2022-09-17T17:47:43.965Z,69.01
2022-09-17T17:50:12.094Z,69.52
2022-09-17T17:52:43.360Z,69.58
2022-09-17T17:55:11.513Z,69.55
2022-09-17T17:57:41.328Z,69.83
2022-09-17T18:00:12.181Z,69.94
2022-09-17T18:02:40.652Z,70.81
2022-09-17T18:05:11.630Z,71.77
2022-09-17T18:07:39.734Z,72.88
2022-09-17T18:10:08.672Z,73.27
2022-09-17T18:12:37.054Z,73.65
2022-09-17T18:15:08.787Z,74.24
2022-09-17T18:17:36.898Z,74.79
2022-09-17T18:20:06.350Z,75.03
2022-09-17T18:22:34.413Z,75.65
2022-09-17T18:25:03.059Z,75.78
2022-09-17T18:27:31.096Z,76.05
2022-09-17T18:29:59.128Z,76.29
2022-09-17T18:32:29.006Z,76.55
2022-09-17T18:34:57.836Z,76.67
2022-09-17T18:37:25.945Z,77.05
2022-09-17T18:39:58.776Z,76.90
2022-09-17T18:42:27.119Z,77.13
2022-09-17T18:44:55.193Z,77.48
2022-09-17T18:47:23.272Z,77.53
2022-09-17T18:49:52.668Z,77.84
2022-09-17T18:52:21.737Z,78.42
2022-09-17T18:54:50.403Z,78.56
2022-09-17T18:57:18.531Z,78.99
2022-09-17T18:59:47.122Z,79.27
2022-09-17T19:02:15.332Z,79.39
2022-09-17T19:04:43.406Z,79.63
2022-09-17T19:07:12.906Z,80.28
2022-09-17T19:09:41.010Z,80.24
2022-09-17T19:12:09.461Z,80.50
2022-09-17T19:14:37.571Z,80.75
2022-09-17T19:17:05.843Z,81.43
2022-09-17T19:19:33.908Z,81.78
2022-09-17T19:22:02.012Z,81.92
2022-09-17T19:24:31.462Z,82.28
2022-09-17T19:27:01.444Z,82.36
2022-09-17T19:29:29.569Z,83.02
2022-09-17T19:31:57.605Z,82.84
2022-09-17T19:34:25.807Z,83.19
2022-09-17T19:36:53.837Z,83.44
2022-09-17T19:39:21.891Z,83.49
2022-09-17T19:41:51.325Z,83.95
2022-09-17T19:44:19.599Z,84.07
2022-09-17T19:46:49.999Z,84.07
2022-09-17T19:49:18.588Z,84.46
2022-09-17T19:51:46.702Z,84.51
2022-09-17T19:54:15.283Z,84.43
2022-09-17T19:56:43.339Z,84.48
2022-09-17T19:59:12.788Z,84.66
2022-09-17T20:01:43.102Z,84.90
2022-09-17T20:04:14.051Z,84.95
2022-09-17T20:06:42.292Z,85.09
2022-09-17T20:09:11.041Z,85.29
2022-09-17T20:11:41.312Z,85.27
2022-09-17T20:14:12.036Z,84.82
2022-09-17T20:16:41.359Z,85.20
2022-09-17T20:19:09.711Z,85.52
2022-09-17T20:21:37.902Z,85.77
2022-09-17T20:24:07.616Z,85.58
2022-09-17T20:26:36.406Z,85.81
2022-09-17T20:29:05.423Z,85.84
2022-09-17T20:31:35.037Z,85.73
2022-09-17T20:34:04.161Z,85.72
2022-09-17T20:36:36.057Z,85.84
2022-09-17T20:39:16.724Z,85.99
2022-09-17T20:41:46.250Z,85.96
2022-09-17T20:44:14.503Z,86.07
2022-09-17T20:46:44.156Z,85.97
2022-09-17T20:49:12.244Z,86.14
2022-09-17T20:51:40.434Z,86.03
2022-09-17T20:54:08.881Z,85.75
2022-09-17T20:56:37.171Z,86.16
2022-09-17T20:59:14.392Z,85.93
2022-09-17T21:01:45.773Z,86.03
2022-09-17T21:04:16.800Z,86.03
2022-09-17T21:06:45.718Z,86.11
2022-09-17T21:09:16.692Z,85.78
2022-09-17T21:11:46.654Z,85.68
2022-09-17T21:14:17.307Z,86.18
2022-09-17T21:16:49.054Z,85.58
2022-09-17T21:19:17.216Z,85.94
2022-09-17T21:21:45.490Z,85.93
2022-09-17T21:24:13.666Z,86.26
2022-09-17T21:26:41.802Z,86.66
2022-09-17T21:29:10.071Z,86.51
2022-09-17T21:31:39.683Z,86.95
2022-09-17T21:34:12.557Z,86.57
2022-09-17T21:36:44.225Z,86.78
2022-09-17T21:39:15.264Z,86.91
2022-09-17T21:41:43.908Z,86.88
2022-09-17T21:44:13.161Z,86.79
2022-09-17T21:46:42.795Z,87.26
2022-09-17T21:49:13.844Z,87.42
2022-09-17T21:51:43.900Z,87.28
2022-09-17T21:54:16.952Z,87.32
2022-09-17T21:56:46.351Z,87.58
2022-09-17T21:59:16.791Z,87.72
2022-09-17T22:01:48.060Z,87.36
2022-09-17T22:04:19.416Z,87.63
2022-09-17T22:07:12.922Z,87.04
2022-09-17T22:09:41.020Z,87.51
2022-09-17T22:12:11.215Z,87.21
2022-09-17T22:14:39.271Z,87.54
2022-09-17T22:17:07.374Z,87.06
2022-09-17T22:19:36.875Z,87.85
2022-09-17T22:22:04.962Z,87.39
2022-09-17T22:24:33.029Z,87.54
2022-09-17T22:27:01.104Z,87.17
2022-09-17T22:29:31.536Z,87.18
2022-09-17T22:31:59.689Z,87.10
2022-09-17T22:34:27.781Z,87.38
2022-09-17T22:36:57.785Z,87.28
2022-09-17T22:39:25.891Z,86.81
2022-09-17T22:41:54.676Z,86.64
2022-09-17T22:44:22.694Z,86.40
2022-09-17T22:46:52.580Z,86.86
2022-09-17T22:49:21.349Z,86.93
2022-09-17T22:51:49.572Z,87.66
2022-09-17T22:54:20.046Z,87.38
2022-09-17T22:56:49.103Z,87.09
2022-09-17T22:59:18.065Z,87.09
2022-09-17T23:01:46.471Z,86.87
2022-09-17T23:04:14.591Z,86.59
2022-09-17T23:06:43.052Z,86.74
2022-09-17T23:09:13.119Z,86.64
2022-09-17T23:11:43.201Z,86.56
2022-09-17T23:14:13.927Z,86.43
2022-09-17T23:16:44.331Z,86.50
2022-09-17T23:19:13.118Z,86.75
2022-09-17T23:21:41.924Z,86.99
2022-09-17T23:24:11.443Z,86.98
2022-09-17T23:26:39.532Z,86.43
2022-09-17T23:29:08.962Z,86.66
2022-09-17T23:31:37.097Z,86.93
2022-09-17T23:34:07.348Z,86.84
2022-09-17T23:36:38.737Z,86.53
2022-09-17T23:39:09.137Z,86.60
2022-09-17T23:41:39.926Z,86.63
2022-09-17T23:44:14.890Z,86.88
2022-09-17T23:46:44.678Z,86.89
2022-09-17T23:49:15.048Z,86.77
2022-09-17T23:51:43.140Z,86.41
2022-09-17T23:54:11.677Z,86.09
2022-09-17T23:56:39.888Z,86.67
2022-09-17T23:59:10.740Z,86.25
